La Guadeloupe, Canada
Current Conditions -  °F | °C
As of 10:34 AM on Thursday 30 Oct 2014 (Local Time) from CYSC Reporting Station
Light Rain Light Rain  
Wind Chill: 37°   Ceiling: 1900
Heat Index: 41°   Visibility: 9mi
Dew Point: 36°   Wind: 6mph
Humidity: 81%   Direction: 300°WNW
Pressure: 29.92"   Gusts: NA
Location:  45.97°N, 70.95°W
Report Text: CYSC 301434Z AUTO 30005KT 260V330 9SM -RA BKN019 BKN030 OVC040 05/02 A2992 RMK SLP139
Loading
Personal Weather Stations






























Interactive Weather Map
Tropical Storm Tracking
New forecast layout! Learn more

10-Day Weather Forecast

Advertisements
Track Severe Weather on mobile